sensor_id;sensor_type;location;lat;lon;timestamp;P1;durP1;ratioP1;P2;durP2;ratioP2
67191;SDS011;54120;53.504;49.426;2023-06-26T00:02:24;5.95;;;3.50;;
67191;SDS011;54120;53.504;49.426;2023-06-26T00:04:50;5.28;;;3.95;;
67191;SDS011;54120;53.504;49.426;2023-06-26T00:07:19;4.65;;;4.07;;
67191;SDS011;54120;53.504;49.426;2023-06-26T00:09:46;4.38;;;3.53;;
67191;SDS011;54120;53.504;49.426;2023-06-26T00:12:12;8.07;;;4.28;;
67191;SDS011;54120;53.504;49.426;2023-06-26T00:14:38;7.75;;;3.78;;
67191;SDS011;54120;53.504;49.426;2023-06-26T00:17:04;6.72;;;4.10;;
67191;SDS011;54120;53.504;49.426;2023-06-26T00:19:31;4.50;;;4.10;;
67191;SDS011;54120;53.504;49.426;2023-06-26T00:21:58;4.50;;;3.63;;
67191;SDS011;54120;53.504;49.426;2023-06-26T00:24:24;5.70;;;4.20;;
67191;SDS011;54120;53.504;49.426;2023-06-26T00:26:50;6.35;;;3.45;;
67191;SDS011;54120;53.504;49.426;2023-06-26T00:29:16;4.25;;;3.85;;
67191;SDS011;54120;53.504;49.426;2023-06-26T00:31:42;4.53;;;3.88;;
67191;SDS011;54120;53.504;49.426;2023-06-26T00:34:09;4.07;;;3.40;;
67191;SDS011;54120;53.504;49.426;2023-06-26T00:36:35;4.53;;;3.60;;
67191;SDS011;54120;53.504;49.426;2023-06-26T00:39:01;6.60;;;4.22;;
67191;SDS011;54120;53.504;49.426;2023-06-26T00:41:29;4.13;;;3.50;;
67191;SDS011;54120;53.504;49.426;2023-06-26T00:43:55;4.78;;;3.40;;
67191;SDS011;54120;53.504;49.426;2023-06-26T00:46:21;6.82;;;3.90;;
67191;SDS011;54120;53.504;49.426;2023-06-26T00:48:47;5.88;;;3.60;;
67191;SDS011;54120;53.504;49.426;2023-06-26T00:51:14;5.15;;;3.50;;
67191;SDS011;54120;53.504;49.426;2023-06-26T00:53:41;5.07;;;3.72;;
67191;SDS011;54120;53.504;49.426;2023-06-26T00:56:08;4.60;;;3.50;;
67191;SDS011;54120;53.504;49.426;2023-06-26T00:58:35;4.55;;;3.72;;
67191;SDS011;54120;53.504;49.426;2023-06-26T01:01:01;3.47;;;3.17;;
67191;SDS011;54120;53.504;49.426;2023-06-26T01:03:28;4.20;;;3.80;;
67191;SDS011;54120;53.504;49.426;2023-06-26T01:05:55;4.50;;;3.28;;
67191;SDS011;54120;53.504;49.426;2023-06-26T01:08:23;3.55;;;3.17;;
67191;SDS011;54120;53.504;49.426;2023-06-26T01:10:50;4.55;;;3.60;;
67191;SDS011;54120;53.504;49.426;2023-06-26T01:13:16;8.73;;;3.63;;
67191;SDS011;54120;53.504;49.426;2023-06-26T01:15:43;3.85;;;3.20;;
67191;SDS011;54120;53.504;49.426;2023-06-26T01:18:09;4.43;;;3.10;;
67191;SDS011;54120;53.504;49.426;2023-06-26T01:20:37;3.63;;;3.28;;
67191;SDS011;54120;53.504;49.426;2023-06-26T01:28:33;3.27;;;2.97;;
67191;SDS011;54120;53.504;49.426;2023-06-26T01:31:02;3.78;;;2.92;;
67191;SDS011;54120;53.504;49.426;2023-06-26T01:33:30;4.32;;;2.85;;
67191;SDS011;54120;53.504;49.426;2023-06-26T01:35:56;3.22;;;2.92;;
67191;SDS011;54120;53.504;49.426;2023-06-26T01:38:22;4.05;;;3.00;;
67191;SDS011;54120;53.504;49.426;2023-06-26T01:40:48;4.35;;;2.67;;
67191;SDS011;54120;53.504;49.426;2023-06-26T01:45:50;5.55;;;3.20;;
67191;SDS011;54120;53.504;49.426;2023-06-26T01:48:18;6.32;;;3.17;;
67191;SDS011;54120;53.504;49.426;2023-06-26T01:50:51;3.42;;;2.95;;
67191;SDS011;54120;53.504;49.426;2023-06-26T01:53:19;4.28;;;3.10;;
67191;SDS011;54120;53.504;49.426;2023-06-26T01:55:53;4.03;;;3.35;;
67191;SDS011;54120;53.504;49.426;2023-06-26T01:58:25;4.40;;;3.47;;
67191;SDS011;54120;53.504;49.426;2023-06-26T02:00:53;3.72;;;3.08;;
67191;SDS011;54120;53.504;49.426;2023-06-26T02:03:19;5.10;;;3.65;;
67191;SDS011;54120;53.504;49.426;2023-06-26T02:05:45;4.32;;;3.58;;
67191;SDS011;54120;53.504;49.426;2023-06-26T02:08:13;3.88;;;3.08;;
67191;SDS011;54120;53.504;49.426;2023-06-26T02:10:40;4.80;;;2.92;;
67191;SDS011;54120;53.504;49.426;2023-06-26T02:13:06;4.78;;;3.20;;
67191;SDS011;54120;53.504;49.426;2023-06-26T02:15:32;5.93;;;3.60;;
67191;SDS011;54120;53.504;49.426;2023-06-26T02:17:58;3.88;;;2.95;;
67191;SDS011;54120;53.504;49.426;2023-06-26T02:20:24;3.33;;;2.97;;
67191;SDS011;54120;53.504;49.426;2023-06-26T02:22:51;4.68;;;2.83;;
67191;SDS011;54120;53.504;49.426;2023-06-26T02:25:17;4.03;;;2.97;;
67191;SDS011;54120;53.504;49.426;2023-06-26T02:27:43;7.25;;;2.90;;
67191;SDS011;54120;53.504;49.426;2023-06-26T02:30:09;3.13;;;2.83;;
67191;SDS011;54120;53.504;49.426;2023-06-26T02:32:35;5.53;;;3.10;;
67191;SDS011;54120;53.504;49.426;2023-06-26T02:35:01;5.50;;;3.20;;
67191;SDS011;54120;53.504;49.426;2023-06-26T02:37:28;3.35;;;2.90;;
67191;SDS011;54120;53.504;49.426;2023-06-26T02:39:53;3.35;;;3.05;;
67191;SDS011;54120;53.504;49.426;2023-06-26T02:42:19;3.38;;;3.03;;
67191;SDS011;54120;53.504;49.426;2023-06-26T02:44:45;3.70;;;3.05;;
67191;SDS011;54120;53.504;49.426;2023-06-26T02:47:11;3.20;;;2.90;;
67191;SDS011;54120;53.504;49.426;2023-06-26T02:49:37;5.25;;;3.10;;
67191;SDS011;54120;53.504;49.426;2023-06-26T02:52:03;4.97;;;2.58;;
67191;SDS011;54120;53.504;49.426;2023-06-26T02:54:29;3.90;;;3.20;;
67191;SDS011;54120;53.504;49.426;2023-06-26T02:56:55;4.97;;;2.60;;
67191;SDS011;54120;53.504;49.426;2023-06-26T02:59:21;3.25;;;2.90;;
67191;SDS011;54120;53.504;49.426;2023-06-26T03:01:47;4.97;;;2.80;;
67191;SDS011;54120;53.504;49.426;2023-06-26T03:04:13;4.68;;;2.72;;
67191;SDS011;54120;53.504;49.426;2023-06-26T03:06:40;4.38;;;3.10;;
67191;SDS011;54120;53.504;49.426;2023-06-26T03:09:06;3.30;;;3.00;;
67191;SDS011;54120;53.504;49.426;2023-06-26T03:11:32;3.17;;;2.92;;
67191;SDS011;54120;53.504;49.426;2023-06-26T03:13:58;3.22;;;2.90;;
67191;SDS011;54120;53.504;49.426;2023-06-26T03:16:24;5.10;;;3.17;;
67191;SDS011;54120;53.504;49.426;2023-06-26T03:18:50;5.97;;;3.13;;
67191;SDS011;54120;53.504;49.426;2023-06-26T03:21:17;4.78;;;3.00;;
67191;SDS011;54120;53.504;49.426;2023-06-26T03:23:43;5.03;;;2.63;;
67191;SDS011;54120;53.504;49.426;2023-06-26T03:26:09;3.13;;;2.90;;
67191;SDS011;54120;53.504;49.426;2023-06-26T03:28:35;3.05;;;2.85;;
67191;SDS011;54120;53.504;49.426;2023-06-26T03:31:01;5.15;;;2.85;;
67191;SDS011;54120;53.504;49.426;2023-06-26T03:33:27;6.32;;;3.05;;
67191;SDS011;54120;53.504;49.426;2023-06-26T03:35:53;5.10;;;2.97;;
67191;SDS011;54120;53.504;49.426;2023-06-26T03:38:19;3.25;;;2.95;;
67191;SDS011;54120;53.504;49.426;2023-06-26T03:40:45;6.43;;;3.20;;
67191;SDS011;54120;53.504;49.426;2023-06-26T03:43:11;3.53;;;3.28;;
67191;SDS011;54120;53.504;49.426;2023-06-26T03:45:37;5.07;;;3.38;;
67191;SDS011;54120;53.504;49.426;2023-06-26T03:48:03;3.25;;;2.92;;
67191;SDS011;54120;53.504;49.426;2023-06-26T03:50:29;4.00;;;3.40;;
67191;SDS011;54120;53.504;49.426;2023-06-26T03:53:00;3.58;;;3.08;;
67191;SDS011;54120;53.504;49.426;2023-06-26T03:55:26;3.42;;;3.05;;
67191;SDS011;54120;53.504;49.426;2023-06-26T03:57:52;4.25;;;3.20;;
67191;SDS011;54120;53.504;49.426;2023-06-26T04:00:18;4.38;;;3.00;;
67191;SDS011;54120;53.504;49.426;2023-06-26T04:02:44;4.88;;;3.30;;
67191;SDS011;54120;53.504;49.426;2023-06-26T04:05:10;4.10;;;3.10;;
67191;SDS011;54120;53.504;49.426;2023-06-26T04:07:37;5.00;;;3.13;;
67191;SDS011;54120;53.504;49.426;2023-06-26T04:10:03;3.50;;;3.20;;
67191;SDS011;54120;53.504;49.426;2023-06-26T04:12:29;4.82;;;3.25;;
67191;SDS011;54120;53.504;49.426;2023-06-26T04:14:55;3.17;;;2.95;;
67191;SDS011;54120;53.504;49.426;2023-06-26T04:17:21;6.15;;;3.00;;
67191;SDS011;54120;53.504;49.426;2023-06-26T04:19:48;3.22;;;2.92;;
67191;SDS011;54120;53.504;49.426;2023-06-26T04:22:14;3.67;;;3.03;;
67191;SDS011;54120;53.504;49.426;2023-06-26T04:24:40;3.15;;;2.72;;
67191;SDS011;54120;53.504;49.426;2023-06-26T04:27:06;3.55;;;2.92;;
67191;SDS011;54120;53.504;49.426;2023-06-26T04:29:32;3.35;;;3.05;;
67191;SDS011;54120;53.504;49.426;2023-06-26T04:31:58;3.92;;;3.10;;
67191;SDS011;54120;53.504;49.426;2023-06-26T04:34:24;3.15;;;2.85;;
67191;SDS011;54120;53.504;49.426;2023-06-26T04:36:51;3.28;;;3.00;;
67191;SDS011;54120;53.504;49.426;2023-06-26T04:39:17;3.72;;;3.42;;
67191;SDS011;54120;53.504;49.426;2023-06-26T04:41:44;6.25;;;5.45;;
67191;SDS011;54120;53.504;49.426;2023-06-26T04:44:10;3.90;;;3.55;;
67191;SDS011;54120;53.504;49.426;2023-06-26T04:46:36;5.15;;;3.30;;
67191;SDS011;54120;53.504;49.426;2023-06-26T04:49:07;5.82;;;3.00;;
67191;SDS011;54120;53.504;49.426;2023-06-26T04:51:33;2.88;;;2.67;;
67191;SDS011;54120;53.504;49.426;2023-06-26T04:54:11;4.57;;;3.30;;
67191;SDS011;54120;53.504;49.426;2023-06-26T04:56:37;6.75;;;2.85;;
67191;SDS011;54120;53.504;49.426;2023-06-26T04:59:05;5.22;;;2.92;;
67191;SDS011;54120;53.504;49.426;2023-06-26T05:01:31;4.10;;;3.58;;
67191;SDS011;54120;53.504;49.426;2023-06-26T05:04:00;3.58;;;3.28;;
67191;SDS011;54120;53.504;49.426;2023-06-26T05:06:26;3.42;;;3.13;;
67191;SDS011;54120;53.504;49.426;2023-06-26T05:08:52;6.60;;;5.90;;
67191;SDS011;54120;53.504;49.426;2023-06-26T05:11:18;6.47;;;3.90;;
67191;SDS011;54120;53.504;49.426;2023-06-26T05:13:44;3.95;;;3.65;;
67191;SDS011;54120;53.504;49.426;2023-06-26T05:16:10;6.30;;;4.10;;
67191;SDS011;54120;53.504;49.426;2023-06-26T05:18:36;3.40;;;3.20;;
67191;SDS011;54120;53.504;49.426;2023-06-26T05:21:03;3.28;;;2.97;;
67191;SDS011;54120;53.504;49.426;2023-06-26T05:23:30;3.55;;;3.20;;
67191;SDS011;54120;53.504;49.426;2023-06-26T05:25:57;4.18;;;3.25;;
67191;SDS011;54120;53.504;49.426;2023-06-26T05:28:24;3.50;;;3.20;;
67191;SDS011;54120;53.504;49.426;2023-06-26T05:30:50;3.80;;;3.35;;
67191;SDS011;54120;53.504;49.426;2023-06-26T05:33:17;3.60;;;3.30;;
67191;SDS011;54120;53.504;49.426;2023-06-26T05:35:45;5.72;;;3.33;;
67191;SDS011;54120;53.504;49.426;2023-06-26T05:38:12;3.70;;;3.40;;
67191;SDS011;54120;53.504;49.426;2023-06-26T05:40:39;4.38;;;3.60;;
67191;SDS011;54120;53.504;49.426;2023-06-26T05:43:06;5.10;;;4.53;;
67191;SDS011;54120;53.504;49.426;2023-06-26T05:45:32;3.40;;;3.20;;
67191;SDS011;54120;53.504;49.426;2023-06-26T05:47:58;3.95;;;2.90;;
67191;SDS011;54120;53.504;49.426;2023-06-26T05:50:25;6.80;;;3.15;;
67191;SDS011;54120;53.504;49.426;2023-06-26T05:52:52;3.47;;;3.08;;
67191;SDS011;54120;53.504;49.426;2023-06-26T05:55:18;3.63;;;3.33;;
67191;SDS011;54120;53.504;49.426;2023-06-26T05:57:45;4.20;;;3.40;;
67191;SDS011;54120;53.504;49.426;2023-06-26T06:00:12;4.22;;;3.83;;
67191;SDS011;54120;53.504;49.426;2023-06-26T06:02:39;4.13;;;3.70;;
67191;SDS011;54120;53.504;49.426;2023-06-26T06:05:07;3.90;;;3.60;;
67191;SDS011;54120;53.504;49.426;2023-06-26T06:07:33;4.50;;;3.47;;
67191;SDS011;54120;53.504;49.426;2023-06-26T06:10:00;7.20;;;3.65;;
67191;SDS011;54120;53.504;49.426;2023-06-26T06:12:26;5.85;;;3.70;;
67191;SDS011;54120;53.504;49.426;2023-06-26T06:14:53;3.90;;;3.50;;
67191;SDS011;54120;53.504;49.426;2023-06-26T06:17:19;4.43;;;3.42;;
67191;SDS011;54120;53.504;49.426;2023-06-26T06:19:46;4.13;;;3.33;;
67191;SDS011;54120;53.504;49.426;2023-06-26T06:22:13;5.38;;;3.85;;
67191;SDS011;54120;53.504;49.426;2023-06-26T06:24:39;3.60;;;3.40;;
67191;SDS011;54120;53.504;49.426;2023-06-26T06:27:05;5.13;;;4.72;;
67191;SDS011;54120;53.504;49.426;2023-06-26T06:29:31;4.28;;;3.90;;
67191;SDS011;54120;53.504;49.426;2023-06-26T06:31:57;4.03;;;3.72;;
67191;SDS011;54120;53.504;49.426;2023-06-26T06:34:23;4.50;;;4.10;;
67191;SDS011;54120;53.504;49.426;2023-06-26T06:36:49;3.85;;;3.50;;
67191;SDS011;54120;53.504;49.426;2023-06-26T06:39:15;4.05;;;3.65;;
67191;SDS011;54120;53.504;49.426;2023-06-26T06:41:41;5.68;;;3.88;;
67191;SDS011;54120;53.504;49.426;2023-06-26T06:44:07;3.78;;;3.47;;
67191;SDS011;54120;53.504;49.426;2023-06-26T06:46:33;3.80;;;3.50;;
67191;SDS011;54120;53.504;49.426;2023-06-26T06:49:00;4.22;;;3.85;;
67191;SDS011;54120;53.504;49.426;2023-06-26T06:51:26;7.32;;;4.10;;
67191;SDS011;54120;53.504;49.426;2023-06-26T06:53:52;5.55;;;3.60;;
67191;SDS011;54120;53.504;49.426;2023-06-26T06:56:18;4.82;;;4.00;;
67191;SDS011;54120;53.504;49.426;2023-06-26T06:58:44;4.07;;;3.72;;
67191;SDS011;54120;53.504;49.426;2023-06-26T07:01:11;5.00;;;4.60;;
67191;SDS011;54120;53.504;49.426;2023-06-26T07:03:39;4.97;;;4.55;;
67191;SDS011;54120;53.504;49.426;2023-06-26T07:06:05;5.68;;;5.28;;
67191;SDS011;54120;53.504;49.426;2023-06-26T07:08:31;6.45;;;5.15;;
67191;SDS011;54120;53.504;49.426;2023-06-26T07:10:57;4.57;;;4.18;;
67191;SDS011;54120;53.504;49.426;2023-06-26T07:13:23;3.88;;;3.50;;
67191;SDS011;54120;53.504;49.426;2023-06-26T07:15:49;6.70;;;3.50;;
67191;SDS011;54120;53.504;49.426;2023-06-26T07:18:15;5.25;;;4.50;;
67191;SDS011;54120;53.504;49.426;2023-06-26T07:20:42;3.83;;;3.53;;
67191;SDS011;54120;53.504;49.426;2023-06-26T07:23:09;3.58;;;3.28;;
67191;SDS011;54120;53.504;49.426;2023-06-26T07:25:35;5.30;;;4.40;;
67191;SDS011;54120;53.504;49.426;2023-06-26T07:28:02;4.93;;;3.47;;
67191;SDS011;54120;53.504;49.426;2023-06-26T07:30:28;3.55;;;3.28;;
67191;SDS011;54120;53.504;49.426;2023-06-26T07:32:54;3.83;;;3.53;;
67191;SDS011;54120;53.504;49.426;2023-06-26T07:35:20;3.90;;;3.50;;
67191;SDS011;54120;53.504;49.426;2023-06-26T07:37:46;3.70;;;3.50;;
67191;SDS011;54120;53.504;49.426;2023-06-26T07:40:12;4.30;;;3.80;;
67191;SDS011;54120;53.504;49.426;2023-06-26T07:42:38;3.80;;;3.50;;
67191;SDS011;54120;53.504;49.426;2023-06-26T07:45:05;4.70;;;3.50;;
67191;SDS011;54120;53.504;49.426;2023-06-26T07:47:36;3.90;;;3.60;;
67191;SDS011;54120;53.504;49.426;2023-06-26T07:50:03;4.00;;;3.70;;
67191;SDS011;54120;53.504;49.426;2023-06-26T07:52:29;4.18;;;3.47;;
67191;SDS011;54120;53.504;49.426;2023-06-26T07:54:58;4.45;;;4.05;;
67191;SDS011;54120;53.504;49.426;2023-06-26T07:57:24;6.18;;;5.68;;
67191;SDS011;54120;53.504;49.426;2023-06-26T07:59:50;4.82;;;4.43;;
67191;SDS011;54120;53.504;49.426;2023-06-26T08:02:17;5.55;;;4.30;;
67191;SDS011;54120;53.504;49.426;2023-06-26T08:04:43;5.63;;;5.05;;
67191;SDS011;54120;53.504;49.426;2023-06-26T08:07:09;4.43;;;4.10;;
67191;SDS011;54120;53.504;49.426;2023-06-26T08:09:35;6.15;;;4.47;;
67191;SDS011;54120;53.504;49.426;2023-06-26T08:12:02;5.30;;;4.43;;
67191;SDS011;54120;53.504;49.426;2023-06-26T08:14:28;4.75;;;4.45;;
67191;SDS011;54120;53.504;49.426;2023-06-26T08:16:54;4.85;;;4.32;;
67191;SDS011;54120;53.504;49.426;2023-06-26T08:19:21;4.47;;;4.18;;
67191;SDS011;54120;53.504;49.426;2023-06-26T08:21:47;5.97;;;4.45;;
67191;SDS011;54120;53.504;49.426;2023-06-26T08:24:13;4.75;;;4.22;;
67191;SDS011;54120;53.504;49.426;2023-06-26T08:26:44;5.13;;;4.53;;
67191;SDS011;54120;53.504;49.426;2023-06-26T08:29:10;6.50;;;4.40;;
67191;SDS011;54120;53.504;49.426;2023-06-26T08:31:39;5.43;;;4.97;;
67191;SDS011;54120;53.504;49.426;2023-06-26T08:34:07;4.93;;;4.53;;
67191;SDS011;54120;53.504;49.426;2023-06-26T08:36:33;5.28;;;4.70;;
67191;SDS011;54120;53.504;49.426;2023-06-26T08:38:59;4.65;;;4.25;;
67191;SDS011;54120;53.504;49.426;2023-06-26T08:41:25;7.57;;;6.88;;
67191;SDS011;54120;53.504;49.426;2023-06-26T08:43:51;4.75;;;4.35;;
67191;SDS011;54120;53.504;49.426;2023-06-26T08:46:18;4.50;;;4.10;;
67191;SDS011;54120;53.504;49.426;2023-06-26T08:48:47;4.95;;;4.45;;
67191;SDS011;54120;53.504;49.426;2023-06-26T08:51:16;4.72;;;4.32;;
67191;SDS011;54120;53.504;49.426;2023-06-26T08:53:50;4.40;;;4.00;;
67191;SDS011;54120;53.504;49.426;2023-06-26T08:56:21;4.75;;;4.35;;
67191;SDS011;54120;53.504;49.426;2023-06-26T08:58:48;5.05;;;4.55;;
67191;SDS011;54120;53.504;49.426;2023-06-26T09:01:15;6.07;;;4.60;;
67191;SDS011;54120;53.504;49.426;2023-06-26T09:03:42;4.35;;;4.05;;
67191;SDS011;54120;53.504;49.426;2023-06-26T09:06:08;4.78;;;4.43;;
67191;SDS011;54120;53.504;49.426;2023-06-26T09:08:35;5.70;;;5.20;;
67191;SDS011;54120;53.504;49.426;2023-06-26T09:11:01;4.80;;;4.40;;
67191;SDS011;54120;53.504;49.426;2023-06-26T09:13:28;4.68;;;4.20;;
67191;SDS011;54120;53.504;49.426;2023-06-26T09:15:55;4.50;;;4.10;;
67191;SDS011;54120;53.504;49.426;2023-06-26T09:18:22;6.20;;;4.20;;
67191;SDS011;54120;53.504;49.426;2023-06-26T09:20:49;5.13;;;4.07;;
67191;SDS011;54120;53.504;49.426;2023-06-26T09:23:15;4.50;;;3.97;;
67191;SDS011;54120;53.504;49.426;2023-06-26T09:25:42;4.97;;;4.50;;
67191;SDS011;54120;53.504;49.426;2023-06-26T09:28:09;4.40;;;4.10;;
67191;SDS011;54120;53.504;49.426;2023-06-26T09:30:36;4.38;;;4.07;;
67191;SDS011;54120;53.504;49.426;2023-06-26T09:33:15;5.00;;;4.60;;
67191;SDS011;54120;53.504;49.426;2023-06-26T09:35:45;4.90;;;4.40;;
67191;SDS011;54120;53.504;49.426;2023-06-26T09:38:12;5.35;;;4.38;;
67191;SDS011;54120;53.504;49.426;2023-06-26T09:40:40;5.38;;;4.40;;
67191;SDS011;54120;53.504;49.426;2023-06-26T09:43:07;7.07;;;4.07;;
67191;SDS011;54120;53.504;49.426;2023-06-26T09:45:34;4.63;;;4.20;;
67191;SDS011;54120;53.504;49.426;2023-06-26T09:48:04;4.75;;;4.43;;
67191;SDS011;54120;53.504;49.426;2023-06-26T09:50:32;6.25;;;4.93;;
67191;SDS011;54120;53.504;49.426;2023-06-26T09:53:10;5.40;;;4.90;;
67191;SDS011;54120;53.504;49.426;2023-06-26T09:55:40;4.72;;;4.30;;
67191;SDS011;54120;53.504;49.426;2023-06-26T09:58:12;4.53;;;4.13;;
67191;SDS011;54120;53.504;49.426;2023-06-26T10:00:42;4.50;;;4.10;;
67191;SDS011;54120;53.504;49.426;2023-06-26T10:03:10;4.57;;;3.85;;
67191;SDS011;54120;53.504;49.426;2023-06-26T10:05:38;4.72;;;3.97;;
67191;SDS011;54120;53.504;49.426;2023-06-26T10:08:05;8.23;;;4.28;;
67191;SDS011;54120;53.504;49.426;2023-06-26T10:10:33;4.57;;;4.18;;
67191;SDS011;54120;53.504;49.426;2023-06-26T10:13:02;4.43;;;4.13;;
67191;SDS011;54120;53.504;49.426;2023-06-26T10:15:33;6.80;;;4.63;;
67191;SDS011;54120;53.504;49.426;2023-06-26T10:18:01;5.03;;;4.60;;
67191;SDS011;54120;53.504;49.426;2023-06-26T10:20:28;5.28;;;4.88;;
67191;SDS011;54120;53.504;49.426;2023-06-26T10:22:55;7.07;;;4.30;;
67191;SDS011;54120;53.504;49.426;2023-06-26T10:25:26;4.50;;;4.20;;
67191;SDS011;54120;53.504;49.426;2023-06-26T10:27:54;4.97;;;4.57;;
67191;SDS011;54120;53.504;49.426;2023-06-26T10:30:24;5.57;;;3.85;;
67191;SDS011;54120;53.504;49.426;2023-06-26T10:32:57;4.60;;;3.95;;
67191;SDS011;54120;53.504;49.426;2023-06-26T10:35:25;5.22;;;4.25;;
67191;SDS011;54120;53.504;49.426;2023-06-26T10:37:52;4.55;;;4.05;;
67191;SDS011;54120;53.504;49.426;2023-06-26T10:40:28;7.50;;;4.10;;
67191;SDS011;54120;53.504;49.426;2023-06-26T10:43:05;4.88;;;4.38;;
67191;SDS011;54120;53.504;49.426;2023-06-26T10:45:35;4.60;;;4.30;;
67191;SDS011;54120;53.504;49.426;2023-06-26T10:48:04;4.60;;;4.28;;
67191;SDS011;54120;53.504;49.426;2023-06-26T10:50:30;4.60;;;4.30;;
67191;SDS011;54120;53.504;49.426;2023-06-26T10:53:07;4.93;;;4.30;;
67191;SDS011;54120;53.504;49.426;2023-06-26T10:55:34;5.00;;;3.88;;
67191;SDS011;54120;53.504;49.426;2023-06-26T10:58:01;5.55;;;3.75;;
67191;SDS011;54120;53.504;49.426;2023-06-26T11:00:31;4.70;;;4.03;;
67191;SDS011;54120;53.504;49.426;2023-06-26T11:02:57;4.55;;;4.15;;
67191;SDS011;54120;53.504;49.426;2023-06-26T11:05:27;5.20;;;4.00;;
67191;SDS011;54120;53.504;49.426;2023-06-26T11:08:06;4.78;;;4.38;;
67191;SDS011;54120;53.504;49.426;2023-06-26T11:13:19;5.75;;;4.07;;
67191;SDS011;54120;53.504;49.426;2023-06-26T11:15:46;4.32;;;3.92;;
67191;SDS011;54120;53.504;49.426;2023-06-26T11:18:13;4.78;;;4.25;;
67191;SDS011;54120;53.504;49.426;2023-06-26T11:20:41;4.10;;;3.80;;
67191;SDS011;54120;53.504;49.426;2023-06-26T11:23:10;5.68;;;4.13;;
67191;SDS011;54120;53.504;49.426;2023-06-26T11:25:37;6.25;;;4.07;;
67191;SDS011;54120;53.504;49.426;2023-06-26T11:28:04;4.75;;;4.30;;
67191;SDS011;54120;53.504;49.426;2023-06-26T11:30:31;5.47;;;3.83;;
67191;SDS011;54120;53.504;49.426;2023-06-26T11:33:07;4.03;;;3.72;;
67191;SDS011;54120;53.504;49.426;2023-06-26T11:35:34;3.88;;;3.58;;
67191;SDS011;54120;53.504;49.426;2023-06-26T11:38:01;4.55;;;4.15;;
67191;SDS011;54120;53.504;49.426;2023-06-26T11:40:32;6.57;;;4.50;;
67191;SDS011;54120;53.504;49.426;2023-06-26T11:42:59;5.00;;;3.88;;
67191;SDS011;54120;53.504;49.426;2023-06-26T11:45:33;8.45;;;3.65;;
67191;SDS011;54120;53.504;49.426;2023-06-26T11:47:59;4.60;;;4.20;;
67191;SDS011;54120;53.504;49.426;2023-06-26T11:50:27;4.10;;;3.80;;
67191;SDS011;54120;53.504;49.426;2023-06-26T11:52:53;4.55;;;3.38;;
67191;SDS011;54120;53.504;49.426;2023-06-26T11:55:21;4.78;;;3.30;;
67191;SDS011;54120;53.504;49.426;2023-06-26T11:57:54;4.13;;;3.83;;
67191;SDS011;54120;53.504;49.426;2023-06-26T12:00:21;4.38;;;4.05;;
67191;SDS011;54120;53.504;49.426;2023-06-26T12:02:48;4.07;;;3.78;;
67191;SDS011;54120;53.504;49.426;2023-06-26T12:05:16;5.60;;;4.30;;
67191;SDS011;54120;53.504;49.426;2023-06-26T12:07:42;4.80;;;4.40;;
67191;SDS011;54120;53.504;49.426;2023-06-26T12:10:12;5.47;;;3.72;;
67191;SDS011;54120;53.504;49.426;2023-06-26T12:12:39;4.10;;;3.70;;
67191;SDS011;54120;53.504;49.426;2023-06-26T12:15:06;5.07;;;3.90;;
67191;SDS011;54120;53.504;49.426;2023-06-26T12:17:34;7.20;;;3.40;;
67191;SDS011;54120;53.504;49.426;2023-06-26T12:20:23;4.38;;;3.33;;
67191;SDS011;54120;53.504;49.426;2023-06-26T12:22:51;4.85;;;3.50;;
67191;SDS011;54120;53.504;49.426;2023-06-26T12:25:23;5.07;;;3.60;;
67191;SDS011;54120;53.504;49.426;2023-06-26T12:27:49;3.67;;;3.38;;
67191;SDS011;54120;53.504;49.426;2023-06-26T12:30:15;4.07;;;3.72;;
67191;SDS011;54120;53.504;49.426;2023-06-26T12:32:44;5.75;;;3.55;;
67191;SDS011;54120;53.504;49.426;2023-06-26T12:35:12;3.95;;;3.55;;
67191;SDS011;54120;53.504;49.426;2023-06-26T12:37:38;5.05;;;3.60;;
67191;SDS011;54120;53.504;49.426;2023-06-26T12:40:19;3.72;;;2.90;;
67191;SDS011;54120;53.504;49.426;2023-06-26T12:42:48;5.28;;;3.35;;
67191;SDS011;54120;53.504;49.426;2023-06-26T12:45:15;3.08;;;2.88;;
67191;SDS011;54120;53.504;49.426;2023-06-26T12:47:41;3.10;;;2.90;;
67191;SDS011;54120;53.504;49.426;2023-06-26T12:50:07;7.30;;;3.35;;
67191;SDS011;54120;53.504;49.426;2023-06-26T12:52:33;3.10;;;2.88;;
67191;SDS011;54120;53.504;49.426;2023-06-26T12:54:59;3.55;;;3.00;;
67191;SDS011;54120;53.504;49.426;2023-06-26T12:57:25;4.70;;;3.88;;
67191;SDS011;54120;53.504;49.426;2023-06-26T12:59:52;6.57;;;2.95;;
67191;SDS011;54120;53.504;49.426;2023-06-26T13:02:18;3.67;;;2.75;;
67191;SDS011;54120;53.504;49.426;2023-06-26T13:04:44;3.03;;;2.72;;
67191;SDS011;54120;53.504;49.426;2023-06-26T13:07:10;4.53;;;2.97;;
67191;SDS011;54120;53.504;49.426;2023-06-26T13:09:37;2.95;;;2.70;;
67191;SDS011;54120;53.504;49.426;2023-06-26T13:12:04;10.98;;;3.25;;
67191;SDS011;54120;53.504;49.426;2023-06-26T13:14:31;3.10;;;2.90;;
67191;SDS011;54120;53.504;49.426;2023-06-26T13:17:00;3.65;;;2.50;;
67191;SDS011;54120;53.504;49.426;2023-06-26T13:19:27;4.40;;;2.60;;
67191;SDS011;54120;53.504;49.426;2023-06-26T13:21:54;2.90;;;2.70;;
67191;SDS011;54120;53.504;49.426;2023-06-26T13:24:20;2.60;;;2.40;;
67191;SDS011;54120;53.504;49.426;2023-06-26T13:26:46;2.90;;;2.70;;
67191;SDS011;54120;53.504;49.426;2023-06-26T13:29:12;5.05;;;2.60;;
67191;SDS011;54120;53.504;49.426;2023-06-26T13:31:38;4.88;;;3.08;;
67191;SDS011;54120;53.504;49.426;2023-06-26T13:34:04;2.90;;;2.60;;
67191;SDS011;54120;53.504;49.426;2023-06-26T13:36:30;5.00;;;3.03;;
67191;SDS011;54120;53.504;49.426;2023-06-26T13:38:59;3.20;;;2.90;;
67191;SDS011;54120;53.504;49.426;2023-06-26T13:41:25;3.60;;;3.25;;
67191;SDS011;54120;53.504;49.426;2023-06-26T13:43:51;4.65;;;2.95;;
67191;SDS011;54120;53.504;49.426;2023-06-26T13:46:17;4.35;;;2.85;;
67191;SDS011;54120;53.504;49.426;2023-06-26T13:48:44;4.55;;;2.90;;
67191;SDS011;54120;53.504;49.426;2023-06-26T13:51:10;4.75;;;2.65;;
67191;SDS011;54120;53.504;49.426;2023-06-26T13:53:36;3.13;;;2.65;;
67191;SDS011;54120;53.504;49.426;2023-06-26T13:56:02;5.30;;;3.10;;
67191;SDS011;54120;53.504;49.426;2023-06-26T13:58:29;6.53;;;2.90;;
67191;SDS011;54120;53.504;49.426;2023-06-26T14:00:58;4.65;;;2.80;;
67191;SDS011;54120;53.504;49.426;2023-06-26T14:03:25;4.47;;;2.70;;
67191;SDS011;54120;53.504;49.426;2023-06-26T14:05:53;6.45;;;2.97;;
67191;SDS011;54120;53.504;49.426;2023-06-26T14:08:19;3.40;;;2.90;;
67191;SDS011;54120;53.504;49.426;2023-06-26T14:10:45;4.15;;;2.97;;
67191;SDS011;54120;53.504;49.426;2023-06-26T14:13:11;3.13;;;2.90;;
67191;SDS011;54120;53.504;49.426;2023-06-26T14:15:41;7.35;;;3.03;;
67191;SDS011;54120;53.504;49.426;2023-06-26T14:18:07;3.30;;;3.00;;
67191;SDS011;54120;53.504;49.426;2023-06-26T14:20:34;3.25;;;3.00;;
67191;SDS011;54120;53.504;49.426;2023-06-26T14:23:01;3.60;;;2.70;;
67191;SDS011;54120;53.504;49.426;2023-06-26T14:25:27;5.30;;;2.90;;
67191;SDS011;54120;53.504;49.426;2023-06-26T14:27:54;4.22;;;3.03;;
67191;SDS011;54120;53.504;49.426;2023-06-26T14:30:21;5.15;;;3.28;;
67191;SDS011;54120;53.504;49.426;2023-06-26T14:32:47;4.82;;;3.17;;
67191;SDS011;54120;53.504;49.426;2023-06-26T14:35:13;10.02;;;3.20;;
67191;SDS011;54120;53.504;49.426;2023-06-26T14:37:39;3.45;;;3.08;;
67191;SDS011;54120;53.504;49.426;2023-06-26T14:40:06;4.20;;;3.03;;
67191;SDS011;54120;53.504;49.426;2023-06-26T14:42:34;4.50;;;3.10;;
67191;SDS011;54120;53.504;49.426;2023-06-26T14:45:00;3.33;;;3.03;;